This is the latest recevied weather packets stored in our database for station/object N8ESG-13. If no packets are shown the sender has not sent any weather packets the latest 10 day(s).
| Time | Temp. | Humidity | Pressure | Rain* | Wind** | Luminosity | Snow |
|---|---|---|---|---|---|---|---|
| 1777897836 | 12.22° C | 66% | 1007.3 hPa | 0 mm | - | - | - |
| 1777890616 | 8.89° C | 71% | 1006.7 hPa | 0 mm | - | - | - |
| 1777888816 | 8.89° C | 71% | 1006.8 hPa | 0 mm | - | - | - |
| 1777887036 | 8.89° C | 70% | 1007.1 hPa | 0 mm | - | - | - |
| 1777883416 | 8.89° C | 69% | 1007.5 hPa | 0 mm | - | - | - |
| 1777879816 | 9.44° C | 67% | 1008.1 hPa | 0 mm | - | - | - |
| 1777849216 | 13.89° C | 45% | 1010.5 hPa | 0 mm | - | - | - |
| 1777845637 | 14.44° C | 45% | 1010.9 hPa | 0 mm | - | - | - |
| 1777813236 | 7.78° C | 55% | 1015.6 hPa | 0 mm | - | - | - |
| 1777811456 | 5.56° C | 72% | 1015.7 hPa | 0 mm | - | - | - |
| 1777804216 | -1.11° C | 92% | 1014.4 hPa | 0 mm | - | - | - |
| 1777788036 | -0.56° C | 91% | 1014.4 hPa | 0 mm | - | - | - |
| 1777780816 | 2.78° C | 79% | 1014.7 hPa | 0 mm | - | - | - |
| 1777773616 | 3.89° C | 73% | 1015.2 hPa | 0 mm | - | - | - |
| 1777771816 | 3.89° C | 73% | 1015.2 hPa | 0 mm | - | - | - |
| 1777770016 | 4.44° C | 69% | 1015.2 hPa | 0 mm | - | - | - |
| 1777762836 | 5° C | 65% | 1015.3 hPa | 0 mm | - | - | - |
| 1777753816 | 6.11° C | 60% | 1015.1 hPa | 0 mm | - | - | - |
| 1777744836 | 6.67° C | 58% | 1015.9 hPa | 0 mm | - | - | - |
| 1777725016 | 1.67° C | 92% | 1015 hPa | 0 mm | - | - | - |
| 1777707016 | 2.22° C | 92% | 1013.6 hPa | 0.25 mm | - | - | - |
| 1777690817 | 3.33° C | 92% | 1014.1 hPa | 0 mm | - | - | - |
| 1777678216 | 5° C | 82% | 1012.6 hPa | 0 mm | - | - | - |
| 1777674617 | 5.56° C | 80% | 1012.2 hPa | 0 mm | - | - | - |
| 1777667416 | 4.44° C | 91% | 1011.6 hPa | 0.25 mm | - | - | - |
* Rain latest hour (hover to see other rain measurements)
** Current wind speed in m/s (hover to see current wind gust speed)